Time;durP1;ratioP1;P1;durP2;ratioP2;P2;SDS_P1;SDS_P2;PMS_P1;PMS_P2;Temp;Humidity;BMP_temperature;BMP_pressure;BME280_temperature;BME280_humidity;BME280_pressure;Samples;Min_cycle;Max_cycle;Signal;HPM_P1;HPM_P2
2024/01/15 00:01:16;;;;;;;256.20;82.47;;;;;;;-141.97;84.21;46110.50;5010153;28;20183;-88
2024/01/15 00:03:42;;;;;;;237.93;79.00;;;;;;;-141.97;84.28;46152.78;4993003;28;20205;-87
2024/01/15 00:06:07;;;;;;;196.07;64.83;;;;;;;-141.97;84.09;46327.63;5029828;28;20171;-87
2024/01/15 00:08:32;;;;;;;193.27;65.87;;;;;;;-141.97;84.71;46533.22;5034192;28;20190;-86
2024/01/15 00:10:58;;;;;;;171.57;56.43;;;;;;;-141.97;85.16;46542.81;5011546;28;20182;-87
2024/01/15 00:13:23;;;;;;;161.40;53.23;;;;;;;-141.97;84.29;46635.06;5012557;28;20168;-86
2024/01/15 00:15:49;;;;;;;168.97;52.27;;;;;;;-141.97;84.63;46135.50;5024916;28;20171;-86
2024/01/15 00:18:14;;;;;;;119.73;40.90;;;;;;;-141.97;84.21;46143.19;5006099;28;20175;-87
2024/01/15 00:20:39;;;;;;;117.63;38.63;;;;;;;-141.97;84.84;46189.28;4997488;28;20167;-86
2024/01/15 00:23:05;;;;;;;101.10;34.83;;;;;;;-141.97;85.16;46544.75;4996013;28;20639;-86
2024/01/15 00:25:30;;;;;;;114.43;37.73;;;;;;;-141.97;85.43;46329.53;5012491;28;20491;-86
2024/01/15 00:27:56;;;;;;;99.17;35.00;;;;;;;-141.97;85.89;46129.72;5012663;28;20190;-87
2024/01/15 00:30:21;;;;;;;99.30;33.10;;;;;;;-141.97;85.99;46300.72;5014185;28;20564;-87
2024/01/15 00:32:47;;;;;;;86.97;30.57;;;;;;;-141.97;86.31;46623.53;4999719;28;20175;-86
2024/01/15 00:35:12;;;;;;;82.07;28.13;;;;;;;-141.97;86.52;46110.50;5012720;28;20190;-87
2024/01/15 00:37:37;;;;;;;101.27;34.40;;;;;;;-141.97;86.32;46229.63;5017437;28;20251;-86
2024/01/15 00:40:04;;;;;;;104.03;36.33;;;;;;;-141.97;86.35;46337.22;4998623;28;20248;-86
2024/01/15 00:42:29;;;;;;;118.53;40.35;;;;;;;-141.97;86.52;46412.16;5011224;28;20317;-87
2024/01/15 00:44:55;;;;;;;120.47;42.27;;;;;;;-141.97;86.14;46143.19;5012092;28;20633;-87
2024/01/15 00:47:20;;;;;;;120.23;42.33;;;;;;;-141.97;86.23;46293.03;5010728;28;20195;-87
2024/01/15 00:49:46;;;;;;;137.03;45.10;;;;;;;-141.97;86.15;46669.63;5011154;28;20171;-86
2024/01/15 00:52:11;;;;;;;127.07;43.23;;;;;;;-141.97;85.82;46193.13;4994488;28;20181;-87
2024/01/15 00:54:37;;;;;;;125.63;43.47;;;;;;;-141.97;85.73;46172.00;4993964;28;20231;-86
2024/01/15 00:57:03;;;;;;;134.35;45.40;;;;;;;-141.97;85.66;46287.28;4996103;28;20178;-86
2024/01/15 00:59:28;;;;;;;132.83;44.50;;;;;;;-141.97;86.06;46231.56;5012095;28;20178;-87
2024/01/15 01:01:54;;;;;;;120.97;42.27;;;;;;;-141.97;86.02;46206.56;5012099;28;20182;-86
2024/01/15 01:04:19;;;;;;;136.27;44.03;;;;;;;-141.97;86.25;46613.91;5011920;28;20163;-86
2024/01/15 01:06:45;;;;;;;154.70;55.47;;;;;;;-141.97;85.85;46208.50;4993858;28;20191;-86
2024/01/15 01:09:10;;;;;;;138.63;51.27;;;;;;;-141.97;86.20;46120.13;4994196;28;20170;-86
2024/01/15 01:11:36;;;;;;;131.70;46.00;;;;;;;-141.97;85.92;46208.50;4994007;28;20582;-87
2024/01/15 01:14:01;;;;;;;123.57;45.97;;;;;;;-141.97;86.44;46625.44;5009856;28;20221;-86
2024/01/15 01:16:27;;;;;;;155.13;53.70;;;;;;;-141.97;86.53;46308.41;5011513;28;20262;-87
2024/01/15 01:18:52;;;;;;;137.80;47.33;;;;;;;-141.97;86.25;46538.97;5011783;28;20221;-86
2024/01/15 01:21:17;;;;;;;165.30;55.77;;;;;;;-141.97;86.25;46681.16;5011658;28;20550;-86
2024/01/15 01:23:43;;;;;;;190.17;58.63;;;;;;;-141.97;86.21;46039.44;4994000;28;20265;-86
2024/01/15 01:26:08;;;;;;;163.63;56.60;;;;;;;-141.97;85.93;46318.00;5011148;28;20179;-85
2024/01/15 01:28:34;;;;;;;148.23;49.90;;;;;;;-141.97;87.20;46318.00;5011455;28;20206;-85
2024/01/15 01:30:59;;;;;;;151.93;51.40;;;;;;;-141.97;88.09;46615.84;5011430;28;20250;-86
2024/01/15 01:33:25;;;;;;;128.63;45.13;;;;;;;-141.97;87.91;46343.00;5011333;28;20170;-85
2024/01/15 01:35:50;;;;;;;121.83;41.30;;;;;;;-141.97;87.90;46350.69;5011229;28;20253;-85
2024/01/15 01:38:15;;;;;;;109.63;36.40;;;;;;;-141.97;87.86;46148.94;5011220;28;20610;-85
2024/01/15 01:40:41;;;;;;;110.07;38.23;;;;;;;-141.97;87.68;46654.28;5010989;28;20155;-86
2024/01/15 01:43:08;;;;;;;110.20;37.47;;;;;;;-141.97;87.96;46658.13;4993211;28;20581;-87
2024/01/15 01:45:34;;;;;;;98.15;36.13;;;;;;;-141.97;87.49;46323.78;4993300;28;20564;-86
2024/01/15 01:48:01;;;;;;;131.87;40.30;;;;;;;-141.97;87.40;46266.13;5011331;28;20191;-87
2024/01/15 01:50:26;;;;;;;92.72;32.33;;;;;;;-141.97;87.01;46123.97;5011038;28;20612;-86
2024/01/15 01:52:52;;;;;;;101.47;34.67;;;;;;;-141.97;86.82;46344.91;4993176;28;20281;-86
2024/01/15 01:55:18;;;;;;;100.00;35.10;;;;;;;-141.97;86.75;46200.81;5010304;28;20188;-86
2024/01/15 01:57:44;;;;;;;87.20;30.73;;;;;;;-141.97;86.39;46646.59;4992875;28;20183;-86
2024/01/15 02:00:10;;;;;;;84.23;30.07;;;;;;;-141.97;86.57;46329.53;5010809;28;20174;-86
2024/01/15 02:02:36;;;;;;;81.82;29.55;;;;;;;-141.97;86.68;46118.19;5010603;28;20178;-86
2024/01/15 02:05:04;;;;;;;85.10;30.27;;;;;;;-141.97;86.43;46177.75;5010823;28;20592;-86
2024/01/15 02:07:30;;;;;;;80.53;26.88;;;;;;;-141.97;86.64;46569.72;5010620;28;20203;-86
2024/01/15 02:09:56;;;;;;;85.80;30.17;;;;;;;-141.97;86.63;46168.16;5009706;28;20189;-86
2024/01/15 02:12:21;;;;;;;97.33;34.27;;;;;;;-141.97;86.95;46329.53;5012524;28;20631;-86
2024/01/15 02:14:47;;;;;;;86.90;31.73;;;;;;;-141.97;86.95;46210.41;4993058;28;20646;-87
2024/01/15 02:17:12;;;;;;;91.70;32.53;;;;;;;-141.97;87.33;46517.84;5009304;28;20170;-86
2024/01/15 02:19:39;;;;;;;87.57;31.73;;;;;;;-141.97;87.90;46613.91;4992965;28;20171;-86
2024/01/15 02:22:04;;;;;;;88.97;31.88;;;;;;;-141.97;88.11;46335.31;4993502;28;20261;-87
2024/01/15 02:24:30;;;;;;;89.50;31.23;;;;;;;-141.97;88.33;46362.22;4992831;28;20258;-87
2024/01/15 02:26:55;;;;;;;84.80;28.97;;;;;;;-141.97;88.28;46316.09;4992412;28;20685;-87
2024/01/15 02:29:21;;;;;;;88.27;32.20;;;;;;;-141.97;88.43;46333.38;5010291;28;20771;-88
2024/01/15 02:31:46;;;;;;;94.63;30.37;;;;;;;-141.97;88.28;46177.75;4993104;28;20616;-87
2024/01/15 02:34:12;;;;;;;90.57;29.50;;;;;;;-141.97;88.72;46612.00;5010223;28;20241;-86
2024/01/15 02:36:37;;;;;;;77.10;24.60;;;;;;;-141.97;89.20;46573.56;5009897;28;20258;-87
2024/01/15 02:39:03;;;;;;;84.00;28.87;;;;;;;-141.97;89.19;46246.94;4992552;28;20172;-87
2024/01/15 02:41:28;;;;;;;74.53;27.20;;;;;;;-141.97;89.69;46187.38;4989139;28;20231;-87
2024/01/15 02:43:54;;;;;;;106.60;34.63;;;;;;;-141.97;89.93;46289.19;4989331;28;20181;-86
2024/01/15 02:46:19;;;;;;;87.87;32.03;;;;;;;-141.97;89.31;46594.69;4990693;28;20187;-87
2024/01/15 02:48:44;;;;;;;84.80;30.90;;;;;;;-141.97;89.17;46725.38;4989173;28;20687;-86
2024/01/15 02:51:10;;;;;;;83.77;30.00;;;;;;;-141.97;88.67;46156.63;4991851;28;20172;-86
2024/01/15 02:53:36;;;;;;;86.50;31.50;;;;;;;-141.97;88.53;46335.31;4991914;28;20364;-84
2024/01/15 02:56:01;;;;;;;85.25;28.67;;;;;;;-141.97;88.71;46250.78;4991118;28;20172;-85
2024/01/15 02:58:27;;;;;;;74.10;26.13;;;;;;;-141.97;88.54;46252.69;4990550;28;20628;-86
2024/01/15 03:00:52;;;;;;;73.00;26.70;;;;;;;-141.97;88.60;46354.53;5005424;28;20632;-85
2024/01/15 03:03:18;;;;;;;75.97;27.07;;;;;;;-141.97;88.78;46268.06;5005254;28;20352;-86
2024/01/15 03:05:43;;;;;;;77.77;26.97;;;;;;;-141.97;88.83;46369.88;4988912;28;20175;-86
2024/01/15 03:08:08;;;;;;;77.43;27.63;;;;;;;-141.97;88.95;46185.44;4990854;28;20191;-86
2024/01/15 03:10:34;;;;;;;74.20;27.47;;;;;;;-141.97;88.52;46245.00;4989151;28;20210;-86
2024/01/15 03:12:59;;;;;;;79.70;27.53;;;;;;;-141.97;88.35;46583.16;4990475;28;20174;-87
2024/01/15 03:15:25;;;;;;;84.73;28.87;;;;;;;-141.97;88.69;46398.72;4991056;28;20167;-87
2024/01/15 03:17:50;;;;;;;81.27;28.47;;;;;;;-141.97;88.78;46277.66;4990178;28;20195;-85
2024/01/15 03:20:15;;;;;;;66.83;23.70;;;;;;;-141.97;88.37;46204.66;4993431;28;20199;-86
2024/01/15 03:22:41;;;;;;;77.70;25.73;;;;;;;-141.97;88.99;46229.63;4991628;28;20246;-86
2024/01/15 03:25:06;;;;;;;76.10;26.47;;;;;;;-141.97;89.32;46085.53;5006800;28;20238;-87
2024/01/15 03:27:32;;;;;;;82.97;28.07;;;;;;;-141.97;89.39;46558.19;4990336;28;20660;-86
2024/01/15 03:29:57;;;;;;;86.70;29.80;;;;;;;-141.97;89.24;46621.59;4990190;28;20164;-86
2024/01/15 03:32:22;;;;;;;66.60;22.00;;;;;;;-141.97;89.64;46366.06;4990753;28;20168;-86
2024/01/15 03:34:48;;;;;;;94.20;29.43;;;;;;;-141.97;89.82;46629.28;4989121;28;20262;-86
2024/01/15 03:37:13;;;;;;;85.77;30.07;;;;;;;-141.97;90.59;46285.34;5006063;28;20238;-87
2024/01/15 03:39:39;;;;;;;105.83;37.10;;;;;;;-141.97;91.14;46289.19;4991277;28;20258;-87
2024/01/15 03:42:04;;;;;;;108.50;36.73;;;;;;;-141.97;91.20;46162.38;5009016;28;20649;-86
2024/01/15 03:44:30;;;;;;;116.47;37.70;;;;;;;-141.97;91.46;46713.84;4994018;28;20164;-85
2024/01/15 03:46:55;;;;;;;102.97;30.73;;;;;;;-141.97;92.56;46383.34;4993926;28;20194;-87
2024/01/15 03:49:20;;;;;;;90.93;29.70;;;;;;;-141.97;93.34;46354.53;4992042;28;20171;-85
2024/01/15 03:51:46;;;;;;;79.43;27.33;;;;;;;-141.97;94.19;46302.66;4992959;28;20171;-85
2024/01/15 03:54:11;;;;;;;81.43;27.43;;;;;;;-141.97;95.28;46419.84;5008854;28;20189;-86
2024/01/15 03:56:37;;;;;;;86.00;26.77;;;;;;;-141.97;96.87;46172.00;4991898;28;20175;-86
2024/01/15 03:59:02;;;;;;;107.30;37.83;;;;;;;-141.97;98.84;46392.94;4992678;28;20266;-86
2024/01/15 04:01:28;;;;;;;105.87;35.70;;;;;;;-141.97;100.00;46277.66;4996827;28;20241;-86
2024/01/15 04:03:53;;;;;;;88.57;28.47;;;;;;;-141.97;100.00;46246.94;4992466;28;20337;-85
2024/01/15 04:06:19;;;;;;;66.30;24.83;;;;;;;-141.97;100.00;46193.13;4993109;28;20175;-87
2024/01/15 04:08:44;;;;;;;84.53;28.20;;;;;;;-141.97;100.00;46354.53;4992373;28;20172;-87
2024/01/15 04:11:09;;;;;;;76.50;26.47;;;;;;;-141.97;100.00;46358.38;4997318;28;20215;-87
2024/01/15 04:13:35;;;;;;;75.37;26.07;;;;;;;-141.97;100.00;46300.72;5006318;28;20186;-85
2024/01/15 04:16:00;;;;;;;77.60;26.93;;;;;;;-141.97;100.00;46287.28;5013186;28;20643;-85
2024/01/15 04:18:26;;;;;;;100.60;34.13;;;;;;;-141.97;100.00;46139.34;5012354;28;20179;-86
2024/01/15 04:20:51;;;;;;;102.47;34.53;;;;;;;-141.97;100.00;46648.50;5012891;28;20179;-85
2024/01/15 04:23:17;;;;;;;149.43;52.60;;;;;;;-141.97;100.00;46700.38;5013203;28;20183;-87
2024/01/15 04:25:42;;;;;;;139.63;49.50;;;;;;;-141.97;100.00;46331.47;5010963;28;20182;-87
2024/01/15 04:28:09;;;;;;;102.60;36.20;;;;;;;-141.97;100.00;46162.38;5013047;28;20578;-86
2024/01/15 04:30:34;;;;;;;106.57;35.88;;;;;;;-141.97;100.00;46635.06;5017706;28;20174;-86
2024/01/15 04:32:59;;;;;;;101.97;35.53;;;;;;;-141.97;100.00;46293.03;5023722;28;20175;-87
2024/01/15 04:35:25;;;;;;;75.30;28.50;;;;;;;-141.97;100.00;46154.69;5015356;28;20179;-86
2024/01/15 04:37:50;;;;;;;96.47;34.73;;;;;;;-141.97;100.00;46717.69;5012736;28;20166;-86
2024/01/15 04:40:16;;;;;;;77.07;27.53;;;;;;;-141.97;100.00;46613.91;5011253;28;20589;-85
2024/01/15 04:42:41;;;;;;;76.47;27.27;;;;;;;-141.97;100.00;46220.03;5031307;28;20321;-87
2024/01/15 04:45:07;;;;;;;89.07;31.07;;;;;;;-141.97;100.00;46567.81;5014797;28;20249;-86
2024/01/15 04:47:32;;;;;;;109.23;37.03;;;;;;;-141.97;100.00;46196.97;5031463;28;20236;-87
2024/01/15 04:49:57;;;;;;;101.93;34.53;;;;;;;-141.97;99.11;46143.19;5052110;28;20154;-87
2024/01/15 04:52:23;;;;;;;112.70;41.00;;;;;;;-141.97;98.04;46312.25;5054094;28;20174;-86
2024/01/15 04:54:49;;;;;;;111.53;38.33;;;;;;;-141.97;97.07;46212.34;5052465;28;20642;-87
2024/01/15 04:57:14;;;;;;;121.70;44.40;;;;;;;-141.97;96.47;46254.59;5035621;28;20265;-87
2024/01/15 04:59:40;;;;;;;177.87;61.03;;;;;;;-141.97;95.68;46235.41;5034279;28;20227;-87
2024/01/15 05:02:05;;;;;;;235.80;82.93;;;;;;;-141.97;94.69;46631.22;5016119;28;20656;-86
2024/01/15 05:04:32;;;;;;;156.77;53.77;;;;;;;-141.97;93.51;46198.91;5016926;28;20177;-86
2024/01/15 05:06:58;;;;;;;137.90;49.13;;;;;;;-141.97;92.17;46127.81;5033724;28;20521;-88
2024/01/15 05:09:23;;;;;;;168.23;58.30;;;;;;;-141.97;90.54;46512.06;5032781;28;20166;-88
2024/01/15 05:11:49;;;;;;;170.80;60.03;;;;;;;-141.97;88.98;46625.44;5015041;28;20197;-86
2024/01/15 05:14:14;;;;;;;148.37;54.23;;;;;;;-141.97;88.57;46245.00;5014564;28;20255;-87
2024/01/15 05:16:46;;;;;;;171.30;58.87;;;;;;;-141.97;88.44;46172.00;5033095;28;20185;-85
2024/01/15 05:19:11;;;;;;;143.93;49.47;;;;;;;-141.97;88.18;46099.00;5014420;28;20166;-85
2024/01/15 05:21:37;;;;;;;205.03;68.63;;;;;;;-141.97;88.13;46304.56;5032334;28;20177;-85
2024/01/15 05:24:02;;;;;;;258.07;80.53;;;;;;;-141.97;87.62;46623.53;5013913;28;20322;-86
2024/01/15 05:26:27;;;;;;;228.30;75.97;;;;;;;-141.97;87.55;46625.44;5013829;28;20541;-86
2024/01/15 05:28:53;;;;;;;208.23;71.47;;;;;;;-141.97;87.06;46369.88;5016542;28;20200;-85
2024/01/15 05:31:18;;;;;;;263.17;84.23;;;;;;;-141.97;87.09;46439.06;5015509;28;20526;-85
2024/01/15 05:33:44;;;;;;;179.87;59.87;;;;;;;-141.97;86.86;46304.56;5031600;28;20170;-85
2024/01/15 05:36:09;;;;;;;127.97;44.97;;;;;;;-141.97;86.86;46214.25;5031275;28;20625;-85
2024/01/15 05:38:34;;;;;;;129.73;45.77;;;;;;;-141.97;86.56;46168.16;5031533;28;20155;-85
2024/01/15 05:41:00;;;;;;;97.80;36.57;;;;;;;-141.97;86.12;46271.91;5013878;28;20730;-85
2024/01/15 05:43:25;;;;;;;88.20;33.10;;;;;;;-141.97;85.75;46181.59;5014078;28;20182;-86
2024/01/15 05:45:51;;;;;;;83.00;29.87;;;;;;;-141.97;86.25;46550.50;5030996;28;20181;-86
2024/01/15 05:48:16;;;;;;;69.70;26.70;;;;;;;-141.97;86.09;46175.84;5013843;28;20284;-84
2024/01/15 05:50:42;;;;;;;88.57;33.60;;;;;;;-141.97;86.24;46356.44;5031490;28;20166;-86
2024/01/15 05:53:07;;;;;;;160.97;56.53;;;;;;;-141.97;86.25;46302.66;5014319;28;20250;-86
2024/01/15 05:55:33;;;;;;;231.57;74.20;;;;;;;-141.97;86.22;46652.34;5013775;28;20220;-87
2024/01/15 05:57:58;;;;;;;201.17;61.23;;;;;;;-141.97;86.26;46293.03;5031293;28;20217;-85
2024/01/15 06:00:24;;;;;;;202.37;63.50;;;;;;;-141.97;87.33;46636.97;5031031;28;20239;-86
2024/01/15 06:02:49;;;;;;;150.70;46.23;;;;;;;-141.97;87.64;46189.28;5013221;28;20678;-86
2024/01/15 06:05:14;;;;;;;120.07;38.33;;;;;;;-141.97;87.58;46308.41;5013151;28;20167;-86
2024/01/15 06:07:40;;;;;;;118.90;40.47;;;;;;;-141.97;87.47;46147.03;5013978;28;20208;-84
2024/01/15 06:10:06;;;;;;;86.70;32.10;;;;;;;-141.97;87.42;46681.16;5031497;28;20155;-85
2024/01/15 06:12:33;;;;;;;120.78;42.28;;;;;;;-141.97;87.14;46694.63;5031344;28;20178;-85
2024/01/15 06:14:59;;;;;;;123.93;42.85;;;;;;;-141.97;86.89;46050.97;5031111;28;20241;-86
2024/01/15 06:17:24;;;;;;;114.80;39.03;;;;;;;-141.97;86.78;46546.66;5031315;28;20655;-85
2024/01/15 06:19:49;;;;;;;139.07;40.27;;;;;;;-141.97;86.63;46258.44;5031646;28;20717;-87
2024/01/15 06:22:15;;;;;;;106.50;35.93;;;;;;;-141.97;87.47;46277.66;5013590;28;20274;-86
2024/01/15 06:24:41;;;;;;;101.63;33.00;;;;;;;-141.97;88.34;46227.72;5013645;28;20170;-87
2024/01/15 06:27:06;;;;;;;90.75;30.65;;;;;;;-141.97;88.76;46677.31;5013500;28;20198;-85
2024/01/15 06:29:32;;;;;;;108.70;38.70;;;;;;;-141.97;88.85;46327.63;5030540;28;20175;-86
2024/01/15 06:31:57;;;;;;;109.33;36.23;;;;;;;-141.97;88.44;46319.94;5018073;28;20174;-87
2024/01/15 06:34:22;;;;;;;124.00;44.30;;;;;;;-141.97;88.59;46212.34;5032290;28;20166;-88
2024/01/15 06:36:48;;;;;;;106.33;36.60;;;;;;;-141.97;88.51;46596.63;5050873;28;20166;-89
2024/01/15 06:39:13;;;;;;;97.23;34.07;;;;;;;-141.97;88.06;46335.31;5032610;28;20264;-89
2024/01/15 06:41:43;;;;;;;100.97;32.43;;;;;;;-141.97;87.50;46185.44;5050732;28;20228;-89
2024/01/15 06:44:12;;;;;;;104.22;35.80;;;;;;;-141.97;87.75;46266.13;5051217;28;20169;-88
2024/01/15 06:46:44;;;;;;;110.75;38.33;;;;;;;-141.97;87.96;46206.56;5050710;28;20194;-88
2024/01/15 06:49:10;;;;;;;222.07;76.50;;;;;;;-141.97;87.85;46110.50;5032633;28;20177;-88
2024/01/15 06:51:36;;;;;;;186.13;57.27;;;;;;;-141.97;88.05;46563.97;5032297;28;20640;-92
2024/01/15 06:54:01;;;;;;;238.27;84.30;;;;;;;-141.97;87.39;46573.56;5051689;28;20169;-89
2024/01/15 06:56:27;;;;;;;411.90;146.57;;;;;;;-141.97;86.61;46533.22;5034956;28;20165;-90
2024/01/15 06:58:52;;;;;;;228.17;80.97;;;;;;;-141.97;86.40;46198.91;5035126;28;20169;-88
2024/01/15 07:01:18;;;;;;;148.60;55.33;;;;;;;-141.97;85.54;46558.19;5053072;28;20184;-91
2024/01/15 07:03:43;;;;;;;130.97;48.97;;;;;;;-141.97;85.21;46212.34;5050816;28;20185;-90
2024/01/15 07:06:09;;;;;;;119.60;43.10;;;;;;;-141.97;84.68;46318.00;5033757;28;20553;-88
2024/01/15 07:08:34;;;;;;;122.00;43.23;;;;;;;-141.97;84.87;46127.81;5031964;28;20657;-89
2024/01/15 07:10:59;;;;;;;132.73;51.73;;;;;;;-141.97;84.60;46221.94;5050152;28;20185;-92
2024/01/15 07:13:25;;;;;;;124.70;43.27;;;;;;;-141.97;84.61;46139.34;5051503;28;20173;-90
2024/01/15 07:15:50;;;;;;;118.80;38.40;;;;;;;-141.97;84.47;46617.75;5035671;28;20266;-90
2024/01/15 07:18:16;;;;;;;102.47;37.07;;;;;;;-141.97;84.00;46120.13;5035850;28;20545;-90
2024/01/15 07:20:41;;;;;;;106.60;35.50;;;;;;;-141.97;83.10;46565.88;5053639;28;20580;-90
2024/01/15 07:23:07;;;;;;;106.37;38.20;;;;;;;-141.97;82.63;46041.34;5037293;28;20279;-90
2024/01/15 07:25:32;;;;;;;97.80;35.17;;;;;;;-141.97;83.33;46246.94;5056783;28;20540;-91
2024/01/15 07:27:58;;;;;;;91.67;32.87;;;;;;;-141.97;83.81;46104.75;5037374;28;20186;-91
2024/01/15 07:30:23;;;;;;;111.83;46.23;;;;;;;-141.97;83.94;46097.06;5056471;28;20692;-89
2024/01/15 07:32:49;;;;;;;122.57;44.97;;;;;;;-141.97;83.86;46452.50;5055769;28;20173;-89
2024/01/15 07:35:15;;;;;;;135.83;48.47;;;;;;;-141.97;83.50;46216.19;5036938;28;20196;-88
2024/01/15 07:37:40;;;;;;;164.57;55.45;;;;;;;-141.97;82.65;46550.50;5055639;28;20631;-87
2024/01/15 07:40:08;;;;;;;115.87;37.87;;;;;;;-141.97;80.92;46185.44;5055259;28;20219;-89
2024/01/15 07:42:34;;;;;;;129.30;43.83;;;;;;;-141.97;79.27;46225.78;5036546;28;20221;-88
2024/01/15 07:45:00;;;;;;;335.67;88.22;;;;;;;-141.97;79.12;46081.69;5037263;28;20181;-88
2024/01/15 07:47:26;;;;;;;87.35;30.27;;;;;;;-141.97;79.28;46548.59;5038492;28;20208;-87
2024/01/15 07:49:52;;;;;;;94.57;32.20;;;;;;;-141.97;80.35;46296.88;5039817;28;20170;-87
2024/01/15 07:52:18;;;;;;;117.87;43.53;;;;;;;-141.97;81.54;46333.38;5043793;28;20208;-88
2024/01/15 07:54:44;;;;;;;97.40;34.73;;;;;;;-141.97;80.90;46200.81;5039251;28;20205;-88
2024/01/15 07:57:10;;;;;;;93.43;34.78;;;;;;;-141.97;80.99;46254.59;5039489;28;20195;-89
2024/01/15 07:59:35;;;;;;;87.32;31.73;;;;;;;-141.97;80.65;46206.56;5035612;28;20174;-89
2024/01/15 08:02:01;;;;;;;101.20;38.57;;;;;;;-141.97;80.62;46216.19;5053751;28;20192;-89
2024/01/15 08:04:26;;;;;;;132.63;48.50;;;;;;;-141.97;79.61;46617.75;5053735;28;20560;-90
2024/01/15 08:06:52;;;;;;;145.83;53.93;;;;;;;-141.97;78.50;46602.38;5035717;28;20200;-90
2024/01/15 08:09:18;;;;;;;122.63;49.30;;;;;;;-141.97;76.84;46147.03;5036137;28;20612;-90
2024/01/15 08:11:43;;;;;;;133.50;49.83;;;;;;;-141.97;74.48;46150.84;5055331;28;20177;-90
2024/01/15 08:14:10;;;;;;;177.53;54.47;;;;;;;-141.97;72.70;46260.38;5035508;28;20207;-87
2024/01/15 08:16:36;;;;;;;107.50;34.95;;;;;;;-141.97;70.59;46239.25;5054177;28;20165;-87
2024/01/15 08:19:02;;;;;;;98.13;38.60;;;;;;;-141.97;70.51;46091.31;5041171;28;20176;-88
2024/01/15 08:21:31;;;;;;;95.40;37.27;;;;;;;-141.97;71.28;46235.41;5067853;28;20483;-89
2024/01/15 08:23:58;;;;;;;89.37;32.57;;;;;;;-141.97;70.52;46254.59;5055813;28;20157;-87
2024/01/15 08:26:23;;;;;;;62.73;26.17;;;;;;;-141.97;69.60;46435.22;5054905;28;20435;-88
2024/01/15 08:28:49;;;;;;;85.97;34.10;;;;;;;-141.97;68.96;46196.97;5056531;28;21242;-88
2024/01/15 08:31:14;;;;;;;321.57;126.07;;;;;;;-141.97;69.28;46402.56;5054593;28;20165;-87
2024/01/15 08:33:40;;;;;;;84.83;31.83;;;;;;;-141.97;69.41;46235.41;5052753;28;20165;-88
2024/01/15 08:36:05;;;;;;;80.63;34.33;;;;;;;-141.97;70.43;46254.59;5054604;28;20166;-86
2024/01/15 08:38:31;;;;;;;59.83;22.63;;;;;;;-141.97;71.83;46489.03;5055490;28;20249;-87
2024/01/15 08:40:58;;;;;;;66.73;29.03;;;;;;;-141.97;73.62;46120.13;5055508;28;20233;-88
2024/01/15 08:43:24;;;;;;;60.00;24.65;;;;;;;-141.97;74.66;46097.06;5055922;28;20585;-87
2024/01/15 08:45:50;;;;;;;63.40;25.37;;;;;;;-141.97;75.32;46250.78;5038965;28;20207;-87
2024/01/15 08:48:17;;;;;;;80.93;34.67;;;;;;;-141.97;73.83;46239.25;5059498;28;20182;-89
2024/01/15 08:50:42;;;;;;;93.53;37.33;;;;;;;-141.97;71.92;46050.97;5056497;28;20392;-87
2024/01/15 08:53:08;;;;;;;82.17;34.63;;;;;;;-141.97;69.58;46235.41;5057290;28;20433;-87
2024/01/15 08:55:33;;;;;;;78.00;32.30;;;;;;;-141.97;68.80;46556.28;5037994;28;20165;-86
2024/01/15 08:57:59;;;;;;;76.33;31.00;;;;;;;-141.97;68.36;46492.88;5031457;28;20212;-87
2024/01/15 09:00:24;;;;;;;85.70;33.03;;;;;;;-141.97;67.41;46052.88;5018202;28;20169;-88
2024/01/15 09:02:50;;;;;;;72.93;32.47;;;;;;;-141.97;66.95;46195.06;5035143;28;20213;-85
2024/01/15 09:05:15;;;;;;;79.47;32.77;;;;;;;-141.97;67.32;46108.59;5035296;28;20555;-86
2024/01/15 09:07:41;;;;;;;95.07;38.17;;;;;;;-141.97;67.12;46062.47;5035523;28;20284;-86
2024/01/15 09:10:06;;;;;;;98.17;38.63;;;;;;;-141.97;67.83;46162.38;5035837;28;20162;-87
2024/01/15 09:12:32;;;;;;;97.37;40.23;;;;;;;-141.97;67.70;45945.28;5016672;28;20180;-86
2024/01/15 09:14:57;;;;;;;125.63;46.83;;;;;;;-141.97;67.51;46147.03;5035002;28;20610;-87
2024/01/15 09:17:23;;;;;;;117.87;46.30;;;;;;;-141.97;67.13;46221.94;5034233;28;20200;-88
2024/01/15 09:19:49;;;;;;;170.73;60.33;;;;;;;-141.97;66.82;46208.50;5033382;28;20249;-87
2024/01/15 09:22:18;;;;;;;232.07;93.83;;;;;;;-141.97;66.76;46054.81;5033704;28;20595;-87
2024/01/15 09:24:44;;;;;;;269.63;111.73;;;;;;;-141.97;67.61;46066.31;5032812;28;20213;-87
2024/01/15 09:27:09;;;;;;;133.50;52.43;;;;;;;-141.97;67.70;46227.72;5036248;28;20455;-87
2024/01/15 09:29:37;;;;;;;167.50;67.47;;;;;;;-141.97;68.01;46223.88;5040949;28;20158;-87
2024/01/15 09:32:04;;;;;;;119.07;45.03;;;;;;;-141.97;68.79;46158.53;5040811;28;20169;-86
2024/01/15 09:34:29;;;;;;;126.70;49.87;;;;;;;-141.97;69.69;46237.31;5044439;28;20452;-87
2024/01/15 09:36:55;;;;;;;112.57;45.10;;;;;;;-141.97;69.77;46125.88;5043718;28;20401;-87
2024/01/15 09:39:21;;;;;;;95.57;38.20;;;;;;;-141.97;71.03;46206.56;5039793;28;20299;-87
2024/01/15 09:41:47;;;;;;;153.93;57.13;;;;;;;-141.97;71.13;46162.38;5033400;28;20230;-87
2024/01/15 09:44:13;;;;;;;147.40;55.93;;;;;;;-141.97;70.24;46592.78;5034271;28;20393;-87
2024/01/15 09:46:40;;;;;;;109.20;47.73;;;;;;;-141.97;70.49;46196.97;5031456;28;20905;-86
2024/01/15 09:49:05;;;;;;;151.53;57.97;;;;;;;-141.97;70.07;46127.81;5013759;28;20181;-86
2024/01/15 09:51:31;;;;;;;155.20;53.93;;;;;;;-141.97;70.24;46204.66;5031268;28;20401;-87
2024/01/15 09:53:58;;;;;;;106.43;42.50;;;;;;;-141.97;72.32;46515.91;5031361;28;20561;-86
2024/01/15 09:56:24;;;;;;;111.47;48.27;;;;;;;-141.97;72.79;46606.22;5014868;28;20500;-85
2024/01/15 09:58:52;;;;;;;99.97;42.50;;;;;;;-141.97;72.26;46485.19;5030930;28;20484;-87
2024/01/15 10:01:20;;;;;;;91.07;33.93;;;;;;;-141.97;70.08;46381.41;5030631;28;20497;-86
2024/01/15 10:03:46;;;;;;;60.13;24.30;;;;;;;-141.97;69.83;46220.03;5030866;28;20427;-88
2024/01/15 10:06:20;;;;;;;73.33;31.20;;;;;;;-141.97;70.13;46237.31;5032576;28;20877;-86
2024/01/15 10:08:50;;;;;;;83.13;33.90;;;;;;;-141.97;69.66;46245.00;5012978;28;20264;-86
2024/01/15 10:11:16;;;;;;;97.20;39.70;;;;;;;-141.97;68.34;46419.84;5031688;28;20397;-87
2024/01/15 10:13:45;;;;;;;92.93;37.83;;;;;;;-141.97;67.15;46567.81;5034777;28;20407;-86
2024/01/15 10:16:11;;;;;;;109.40;39.13;;;;;;;-141.97;66.52;46535.13;5040693;28;20412;-89
2024/01/15 10:18:36;;;;;;;73.67;29.83;;;;;;;-141.97;67.06;46446.75;5021130;28;20844;-89
2024/01/15 10:21:11;;;;;;;62.97;28.17;;;;;;;-141.97;68.53;46233.47;5014664;28;20166;-89
2024/01/15 10:23:36;;;;;;;79.33;35.70;;;;;;;-141.97;69.13;46037.50;5019341;28;20280;-90
2024/01/15 10:26:03;;;;;;;80.17;31.70;;;;;;;-141.97;68.83;46173.91;5017454;28;20408;-89
2024/01/15 10:28:30;;;;;;;97.67;37.93;;;;;;;-141.97;68.79;46464.03;5014720;28;20576;-90
2024/01/15 10:30:58;;;;;;;83.43;32.97;;;;;;;-141.97;68.63;46477.50;5014224;28;20413;-89
2024/01/15 10:33:25;;;;;;;62.43;25.07;;;;;;;-141.97;66.74;46223.88;5040061;28;20411;-92
2024/01/15 10:35:53;;;;;;;84.57;33.03;;;;;;;-141.97;65.42;46227.72;5034615;28;20397;-90
2024/01/15 10:38:22;;;;;;;70.70;30.33;;;;;;;-141.97;64.37;45981.78;5042739;28;20489;-89
2024/01/15 10:40:54;;;;;;;55.53;23.83;;;;;;;-141.97;63.25;45897.25;5035811;28;20520;-89
2024/01/15 10:43:20;;;;;;;105.90;41.23;;;;;;;-141.97;63.59;45931.84;5017902;28;20865;-88
2024/01/15 10:45:50;;;;;;;67.30;30.63;;;;;;;-141.97;62.71;46189.28;5034695;28;20797;-90
2024/01/15 10:48:19;;;;;;;79.87;33.17;;;;;;;-141.97;62.94;45889.56;5032934;28;20500;-89
2024/01/15 10:50:46;;;;;;;69.73;30.33;;;;;;;-141.97;62.00;46175.84;5031681;28;20860;-90